• Join FlightAware (Why Join?)
  • Login
  • US Flag 
03:06AM EST


 

Airport Tracker/Info


-or-


 

Live Flight TrackerFlight Track Log ✈ N360FE ✈ 17-Apr-2013 ✈ KMEM - KIAD

Flight Track Log - Related Links

Times and Time Zones

All times are in EDT time to prevent confusion due to time zone crossing. See the N360FE flight status page for this flight to view local times or setup timezone preferences in your user account.

Time Position Orientation Groundspeed Altitude Reporting Facility
EDT Latitude Longitude Course Direction KTS MPH feet Rate Location/Type
04:57PM 35.0167 -89.9667 180° South 169 194 1,200  Level KMEM
04:58PM 34.9667 -89.9667 180° South 200 230 2,700 1,860 Climbing KMEM
04:59PM 34.9333 -89.9167 129° Southeast 264 304 4,800 2,640 Climbing KMEM
05:00PM 34.9333 -89.8000 90° East 306 352 8,000 2,880 Climbing KMEM
05:00PM 34.9786 -89.7589 37° Northeast 313 360 9,800 1,860 Climbing Memphis Center
05:01PM 35.0664 -89.7533 North 460 529 11,100 1,320 Climbing Memphis Center
05:02PM 35.1728 -89.7625 356° North 407 468 12,500 1,680 Climbing Memphis Center
05:03PM 35.2897 -89.7644 359° North 407 468 14,500 2,040 Climbing Memphis Center
05:04PM 35.4019 -89.6997 25° Northeast 429 494 16,600 2,160 Climbing Memphis Center
05:05PM 35.5078 -89.6200 32° Northeast 438 504 18,900 1,860 Climbing Memphis Center
05:06PM 35.6033 -89.5503 31° Northeast 449 517 20,400 1,380 Climbing Memphis Center
05:07PM 35.7133 -89.4672 32° Northeast 454 522 21,800 1,440 Climbing Memphis Center
05:08PM 35.8253 -89.3817 32° Northeast 454 522 23,300 1,440 Climbing Memphis Center
05:09PM 35.9414 -89.2956 31° Northeast 468 539 24,700 1,260 Climbing Memphis Center
05:15PM 36.7040 -88.8290 31° Northeast 512 589 32,300 1,260 Climbing FlightAware
05:16PM 36.7820 -88.7630 34° Northeast 512 589 33,000 960 Climbing FlightAware
05:17PM 36.8700 -88.6870 35° Northeast 510 587 33,700 600 Climbing FlightAware
05:17PM 36.9310 -88.6350 34° Northeast 510 587 33,800 660 Climbing FlightAware
05:18PM 37.0320 -88.5480 35° Northeast 509 586 34,700 780 Climbing FlightAware
05:19PM 37.1130 -88.4770 35° Northeast 505 581 35,000 180 Climbing FlightAware
05:19PM 37.1670 -88.3830 54° Northeast 508 585 35,000  Level FlightAware
05:20PM 37.2050 -88.2900 63° Northeast 508 585 35,000  Level FlightAware
05:21PM 37.2550 -88.1580 65° Northeast 507 583 35,000  Level FlightAware
05:22PM 37.2850 -88.0320 73° East 503 579 35,000  Level FlightAware
05:22PM 37.3080 -87.9180 76° East 508 585 35,000  Level FlightAware
05:23PM 37.3310 -87.8040 76° East 510 587 35,000  Level FlightAware
05:24PM 37.3560 -87.6770 76° East 509 586 35,000  Level FlightAware
05:24PM 37.3730 -87.5590 80° East 504 580 35,000  Level FlightAware
05:25PM 37.3850 -87.4280 83° East 505 581 35,000 540 Level FlightAware
05:26PM 37.3960 -87.3120 83° East 500 575 35,800 720 Climbing FlightAware
05:26PM 37.4060 -87.1930 84° East 500 575 36,000 120 Climbing FlightAware
05:27PM 37.4170 -87.0690 84° East 500 575 36,000  Level FlightAware
05:28PM 37.4260 -86.9480 85° East 489 563 36,000 240 Level FlightAware
05:29PM 37.4360 -86.8260 84° East 477 549 36,400 540 Climbing FlightAware
05:29PM 37.4450 -86.7120 84° East 477 549 36,800 420 Climbing FlightAware
05:30PM 37.4560 -86.6050 83° East 480 552 37,000 120 Climbing FlightAware
05:31PM 37.4810 -86.4850 75° East 482 555 37,000  Level FlightAware
05:31PM 37.5020 -86.3840 75° East 486 559 37,000  Level FlightAware
05:32PM 37.5270 -86.2600 76° East 489 563 37,000  Level FlightAware
05:33PM 37.5510 -86.1450 75° East 488 562 37,000  Level FlightAware
05:33PM 37.5690 -86.0560 76° East 491 565 37,000  Level FlightAware
05:34PM 37.5920 -85.9420 76° East 494 568 37,000  Level FlightAware
05:35PM 37.6140 -85.8310 76° East 498 573 37,000  Level FlightAware
05:35PM 37.6380 -85.7090 76° East 499 574 37,000  Level FlightAware
05:36PM 37.6610 -85.5960 76° East 505 581 37,000  Level FlightAware
05:37PM 37.6870 -85.4640 76° East 506 582 37,000 60 Level FlightAware
05:37PM 37.7100 -85.3460 76° East 504 580 37,100 60 Climbing FlightAware
05:38PM 37.7310 -85.2360 76° East 492 566 37,100 -120 Level FlightAware
05:39PM 37.7513 -85.1333 76° East 489 563 37,000 -120 Descending FlightAware ADS-B
05:40PM 37.7760 -85.0060 76° East 490 564 37,000  Level FlightAware
05:40PM 37.8000 -84.8800 76° East 494 568 37,000  Level FlightAware
05:41PM 37.8230 -84.7620 76° East 499 574 37,000 60 Level FlightAware
05:42PM 37.8470 -84.6370 76° East 499 574 37,100  Climbing FlightAware
05:42PM 37.8680 -84.5200 77° East 499 574 37,000 -120 Descending FlightAware
05:43PM 37.8900 -84.4060 76° East 502 578 37,000  Level FlightAware
05:44PM 37.9140 -84.2770 77° East 505 581 37,000  Level FlightAware
05:44PM 37.9350 -84.1590 77° East 506 582 37,000  Level FlightAware
05:45PM 37.9590 -84.0320 76° East 509 586 37,000  Level FlightAware
05:46PM 37.9790 -83.9210 77° East 511 588 37,000 60 Level FlightAware
05:47PM 38.0010 -83.8020 77° East 512 589 37,100 60 Climbing FlightAware
05:47PM 38.0230 -83.6780 77° East 507 583 37,100 -120 Level FlightAware
05:48PM 38.0490 -83.5330 77° East 506 582 37,000 -60 Descending FlightAware
05:49PM 38.0800 -83.3610 77° East 505 581 37,000  Level FlightAware
05:50PM 38.0980 -83.2630 77° East 505 581 37,000  Level FlightAware
05:51PM 38.1240 -83.1110 78° East 508 585 37,000  Level FlightAware
05:51PM 38.1380 -82.9860 82° East 513 590 37,000  Level FlightAware
05:52PM 38.1480 -82.8510 85° East 513 590 37,000  Level FlightAware
05:53PM 38.1565 -82.7433 84° East 514 592 37,000  Level FlightAware ADS-B
05:53PM 38.1633 -82.6527 85° East 516 594 37,000 60 Level FlightAware ADS-B
05:54PM 38.1703 -82.5595 85° East 515 593 37,100  Climbing FlightAware ADS-B
05:54PM 38.1767 -82.4668 85° East 512 589 37,000 -120 Descending FlightAware ADS-B
05:55PM 38.1831 -82.3772 85° East 510 587 37,000  Level FlightAware ADS-B
05:55PM 38.1940 -82.2220 85° East 508 585 37,000  Level FlightAware
05:56PM 38.2020 -82.1060 85° East 508 585 37,000  Level FlightAware
05:57PM 38.2100 -81.9840 85° East 508 585 37,000  Level FlightAware
05:58PM 38.2190 -81.8500 85° East 510 587 37,000  Level FlightAware
05:58PM 38.2270 -81.7300 85° East 513 590 37,000 60 Level FlightAware
05:59PM 38.2350 -81.6100 85° East 513 590 37,100 60 Climbing FlightAware
06:00PM 38.2440 -81.4750 85° East 514 592 37,100 -120 Level FlightAware
06:00PM 38.2510 -81.3540 86° East 516 594 37,000 -120 Descending FlightAware
06:01PM 38.2590 -81.2330 85° East 518 596 37,000  Level FlightAware
06:02PM 38.2680 -81.0810 86° East 520 598 37,000  Level FlightAware
06:02PM 38.2750 -80.9590 86° East 520 598 37,000 60 Level FlightAware
06:03PM 38.2830 -80.8220 86° East 516 594 37,100  Climbing FlightAware
06:04PM 38.2900 -80.7020 86° East 510 587 37,000 -120 Descending FlightAware
06:05PM 38.2960 -80.5820 86° East 510 587 37,000  Level FlightAware
06:05PM 38.3060 -80.4470 85° East 513 590 37,000  Level FlightAware
06:06PM 38.3270 -80.3320 77° East 516 594 37,000 -120 Level FlightAware
06:07PM 38.3470 -80.2110 78° East 514 592 36,900 -1,320 Descending FlightAware
06:07PM 38.3720 -80.0790 76° East 511 588 35,200 -2,640 Descending FlightAware
06:08PM 38.3990 -79.9660 73° East 515 593 33,200 -2,880 Descending FlightAware
06:09PM 38.4310 -79.8290 73° East 508 585 31,200 -2,640 Descending FlightAware
06:09PM 38.4570 -79.7190 73° East 500 575 29,500 -2,700 Descending FlightAware
06:10PM 38.4810 -79.6080 75° East 490 564 27,600 -3,300 Descending FlightAware
06:11PM 38.5080 -79.4870 74° East 463 533 24,900 -2,040 Descending FlightAware
06:12PM 38.5380 -79.3600 73° East 440 506 24,200 -1,740 Descending FlightAware
06:15PM 38.6140 -78.8890 78° East 370 426 17,300 -1,980 Descending FlightAware
06:16PM 38.6370 -78.7750 75° East 359 413 15,700 -1,620 Descending FlightAware
06:17PM 38.6600 -78.6780 73° East 353 406 14,600 -1,080 Descending FlightAware
06:18PM 38.6770 -78.6110 72° East 351 404 14,300 -1,500 Descending FlightAware
06:18PM 38.6990 -78.5130 74° East 333 383 12,500 -1,800 Descending FlightAware
06:19PM 38.7150 -78.4400 74° East 310 357 11,600 -1,440 Descending FlightAware
06:19PM 38.7190 -78.4130 79° East 306 352 11,200 -1,140 Descending FlightAware
06:20PM 38.7180 -78.3440 91° East 293 337 10,600 -840 Descending FlightAware
06:21PM 38.7160 -78.2480 91° East 295 339 9,900 -720 Descending FlightAware
06:21PM 38.7160 -78.2220 90° East 294 338 9,800 -720 Descending FlightAware
06:22PM 38.7150 -78.1670 91° East 290 334 9,400 -900 Descending FlightAware
06:22PM 38.7150 -78.1270 90° East 291 335 9,000 -1,140 Descending FlightAware
06:23PM 38.7150 -78.0810 90° East 292 336 8,400 -1,200 Descending FlightAware
06:23PM 38.7150 -78.0500 90° East 291 335 8,100 -1,200 Descending FlightAware
06:23PM 38.7150 -77.9970 90° East 287 330 7,500 -1,140 Descending FlightAware
06:24PM 38.7160 -77.9530 88° East 282 325 7,100 -660 Descending FlightAware
06:24PM 38.7170 -77.8940 89° East 282 325 6,800 -1,140 Descending FlightAware
06:25PM 38.7180 -77.8380 89° East 274 315 5,800 -1,620 Descending FlightAware
06:25PM 38.7190 -77.7890 88° East 272 313 5,200 -1,080 Descending FlightAware
06:26PM 38.7200 -77.7590 88° East 267 307 4,900 -480 Descending FlightAware
06:26PM 38.7210 -77.7080 89° East 253 291 4,800 -120 Descending FlightAware
06:27PM 38.7220 -77.6640 88° East 253 291 4,800  Level FlightAware
06:27PM 38.7230 -77.6240 88° East 233 268 4,800 -480 Level FlightAware
06:28PM 38.7240 -77.5830 88° East 230 265 4,400 -1,020 Descending FlightAware
06:28PM 38.7260 -77.5510 85° East 227 261 3,900 -1,080 Descending FlightAware
06:28PM 38.7360 -77.5350 51° Northeast 212 244 3,700 -840 Descending FlightAware
06:29PM 38.7590 -77.5130 37° Northeast 192 221 3,300 -1,020 Descending FlightAware
06:29PM 38.7760 -77.4950 40° Northeast 187 215 2,800 -660 Descending FlightAware
06:30PM 38.7960 -77.4750 38° Northeast 182 209 2,700 -300 Descending FlightAware
06:30PM 38.8060 -77.4660 35° Northeast 174 200 2,600 -720 Descending FlightAware
06:30PM 38.8140 -77.4620 21° North 175 201 2,400 -1,200 Descending FlightAware
06:30PM 38.8250 -77.4620 360° North 169 194 2,100 -840 Descending FlightAware
06:31PM 38.8490 -77.4610 North 170 196 1,800 -720 Descending FlightAware
06:31PM 38.8710 -77.4610 360° North 157 181 1,400 -900 Descending FlightAware
06:32PM 38.8880 -77.4610 360° North 141 162 1,000 -660 Descending FlightAware
06:33PM 38.9167 -77.4667 360° North 143 165 700 -480 Descending Potomac TRACON
06:35PM 38.9333 -77.4500 159° South  Level FlightAware Approximate
06:42PM 38.9474 -77.4599 159° South  Level Estimated